In Rescue
 
Open Full Screen Window  High Contrast Mode
Wind Gusting 00 knots
06
July 13, 2020 11:45 AM EDT
Weather Information
Wind Direction
  340 °
Wind Speed
  06 kt (7 mph)
Wind Gust
  00 kt (0 mph)
Altimeter
30.01 in
Visibility
10 SM
Temperature
23° C
73° F
Dewpoint
13° C
55° F
Humidity
53%
Sky Condition
Broken @ 4,800 ft
Broken @ 4,000 ft
Broken @ 3,500 ft
VFR

METAR KAMN 131545Z AUTO 34006KT 10SM BKN035 BKN040 BKN048 23/13 A3001 RMK AO2 T02290130

FAA Disclaimer: The data displayed is for advisory purposes only and is not to be used for flight planning or operations.